Time;durP1;ratioP1;P1;durP2;ratioP2;P2;SDS_P1;SDS_P2;PMS_P1;PMS_P2;Temp;Humidity;BMP_temperature;BMP_pressure;BME280_temperature;BME280_humidity;BME280_pressure;Samples;Min_cycle;Max_cycle;Signal;HPM_P1;HPM_P2
2023/01/06 00:01:49;;;;;;;10.80;7.20;;;;;;;6.36;62.62;95151.22;4965905;28;20470;-71
2023/01/06 00:04:15;;;;;;;11.73;7.40;;;;;;;6.38;62.79;95154.53;4951625;28;20093;-71
2023/01/06 00:06:40;;;;;;;10.38;6.47;;;;;;;6.38;62.32;95172.59;4967811;28;20027;-70
2023/01/06 00:09:05;;;;;;;10.02;5.90;;;;;;;6.54;62.31;95170.72;4960372;28;20030;-71
2023/01/06 00:11:32;;;;;;;10.73;6.13;;;;;;;6.68;62.13;95178.47;4971720;28;20065;-71
2023/01/06 00:13:58;;;;;;;9.73;6.38;;;;;;;6.59;61.60;95184.19;4969776;28;20477;-70
2023/01/06 00:16:24;;;;;;;12.70;6.90;;;;;;;6.62;61.55;95189.16;4942118;28;20496;-71
2023/01/06 00:18:53;;;;;;;11.40;7.00;;;;;;;6.60;61.11;95185.88;4953355;28;20034;-71
2023/01/06 00:21:19;;;;;;;10.55;6.75;;;;;;;6.69;61.07;95184.47;4938113;29;20529;-71
2023/01/06 00:23:44;;;;;;;11.48;6.78;;;;;;;6.66;60.71;95190.66;4955556;28;20058;-71
2023/01/06 00:26:10;;;;;;;12.00;6.85;;;;;;;6.89;60.60;95212.47;4953525;28;20043;-71
2023/01/06 00:28:36;;;;;;;10.43;5.95;;;;;;;6.80;60.40;95194.13;4946106;28;20508;-70
2023/01/06 00:31:06;;;;;;;10.80;6.47;;;;;;;6.91;60.83;95214.97;4946461;29;20031;-71
2023/01/06 00:33:32;;;;;;;11.52;6.60;;;;;;;7.02;60.12;95222.88;4954727;28;20081;-71
2023/01/06 00:35:58;;;;;;;14.68;6.47;;;;;;;6.97;60.15;95213.75;4954038;28;20502;-70
2023/01/06 00:38:23;;;;;;;10.63;6.05;;;;;;;7.03;60.61;95221.13;4953480;28;20023;-71
2023/01/06 00:40:49;;;;;;;10.13;6.25;;;;;;;7.11;60.52;95205.97;4968260;28;20440;-71
2023/01/06 00:43:14;;;;;;;11.40;6.28;;;;;;;6.85;60.52;95167.09;4958047;28;20027;-71
2023/01/06 00:45:40;;;;;;;9.52;5.90;;;;;;;7.24;60.14;95200.84;4953972;28;20090;-71
2023/01/06 00:48:05;;;;;;;9.70;6.10;;;;;;;7.23;60.81;95210.34;4961605;28;20027;-71
2023/01/06 00:50:31;;;;;;;9.32;6.18;;;;;;;7.16;60.82;95202.16;4940509;28;20485;-71
2023/01/06 00:52:56;;;;;;;8.90;5.78;;;;;;;7.21;62.00;95214.78;4960605;28;20406;-71
2023/01/06 00:55:21;;;;;;;11.07;6.07;;;;;;;7.01;61.20;95210.88;4953211;28;20074;-71
2023/01/06 00:57:51;;;;;;;9.80;6.07;;;;;;;7.04;61.22;95218.44;4960930;28;20105;-70
2023/01/06 01:00:17;;;;;;;10.27;5.43;;;;;;;7.16;61.43;95220.25;4955309;28;20035;-71
2023/01/06 01:02:42;;;;;;;11.20;6.38;;;;;;;6.98;61.66;95190.41;4949908;28;20046;-71
2023/01/06 01:05:08;;;;;;;9.02;6.15;;;;;;;7.03;62.25;95227.09;4970865;28;20460;-71
2023/01/06 01:07:33;;;;;;;8.90;5.82;;;;;;;7.20;61.98;95226.06;4953403;28;20030;-70
2023/01/06 01:09:59;;;;;;;7.90;6.10;;;;;;;7.14;62.33;95216.94;4967373;28;20061;-71
2023/01/06 01:12:24;;;;;;;11.00;6.75;;;;;;;7.08;62.35;95206.16;4953422;28;20093;-70
2023/01/06 01:14:51;;;;;;;9.23;5.30;;;;;;;7.22;61.93;95215.63;4963405;28;20118;-70
2023/01/06 01:17:21;;;;;;;8.82;5.03;;;;;;;7.33;62.22;95220.94;4958891;28;20041;-71
2023/01/06 01:19:47;;;;;;;8.10;5.00;;;;;;;7.33;62.49;95229.53;4953754;28;20045;-71
2023/01/06 01:22:12;;;;;;;8.95;4.85;;;;;;;7.21;62.53;95229.47;4943563;28;20058;-71
2023/01/06 01:24:38;;;;;;;7.00;4.80;;;;;;;7.38;62.46;95229.22;4986824;28;20035;-70
2023/01/06 01:27:03;;;;;;;8.80;4.15;;;;;;;7.43;62.57;95232.34;4969984;28;20058;-70
2023/01/06 01:29:29;;;;;;;5.80;3.78;;;;;;;7.50;62.66;95228.44;4954627;28;20050;-71
2023/01/06 01:31:54;;;;;;;5.75;4.07;;;;;;;7.52;62.65;95216.25;4967562;28;20409;-71
2023/01/06 01:34:20;;;;;;;5.65;4.05;;;;;;;7.54;62.33;95213.56;4968405;28;20035;-70
2023/01/06 01:36:46;;;;;;;7.18;4.63;;;;;;;7.70;62.13;95216.00;4959633;28;20498;-71
2023/01/06 01:39:13;;;;;;;8.20;3.90;;;;;;;7.68;61.91;95210.09;4950356;28;20042;-71
2023/01/06 01:41:39;;;;;;;7.68;4.57;;;;;;;7.73;60.97;95205.44;4956349;28;20545;-71
2023/01/06 01:44:42;;;;;;;6.43;4.00;;;;;;;7.78;61.23;95211.16;4951499;29;20027;-70
2023/01/06 01:47:08;;;;;;;6.70;4.13;;;;;;;7.67;61.26;95203.25;4958550;28;20418;-71
2023/01/06 01:49:36;;;;;;;8.63;3.60;;;;;;;7.86;61.25;95214.06;4954009;28;20196;-71
2023/01/06 01:52:01;;;;;;;5.90;4.10;;;;;;;7.78;61.26;95205.97;4953289;28;20043;-70
2023/01/06 01:54:28;;;;;;;6.72;4.45;;;;;;;7.71;60.68;95194.38;4969044;28;20496;-70
2023/01/06 01:57:01;;;;;;;7.28;4.25;;;;;;;7.72;60.90;95180.53;4959817;28;20035;-70
2023/01/06 01:59:28;;;;;;;5.40;3.80;;;;;;;7.77;60.89;95163.78;4969210;28;20653;-70
2023/01/06 02:01:54;;;;;;;6.90;3.67;;;;;;;7.93;60.77;95157.56;4936545;29;20058;-70
2023/01/06 02:04:20;;;;;;;6.88;3.60;;;;;;;7.89;60.77;95172.47;4952421;28;20051;-70
2023/01/06 02:06:47;;;;;;;4.78;3.35;;;;;;;7.74;60.29;95173.47;4936077;28;20038;-70
2023/01/06 02:09:39;;;;;;;5.38;3.33;;;;;;;7.79;60.46;95180.00;4953632;28;20035;-70
2023/01/06 02:12:04;;;;;;;5.55;3.53;;;;;;;7.89;59.89;95190.59;4969550;28;20047;-71
2023/01/06 02:14:30;;;;;;;5.03;3.25;;;;;;;7.97;59.57;95198.66;4970346;28;20034;-70
2023/01/06 02:17:20;;;;;;;8.43;4.38;;;;;;;7.94;59.75;95204.03;4969618;28;20035;-70
2023/01/06 02:20:07;;;;;;;6.30;4.05;;;;;;;7.88;59.85;95211.38;4967936;28;20054;-71
2023/01/06 02:23:00;;;;;;;7.88;4.05;;;;;;;7.82;60.17;95197.91;4973717;28;20109;-70
2023/01/06 02:26:00;;;;;;;6.85;4.22;;;;;;;7.96;59.54;95198.75;4966570;28;20038;-70
2023/01/06 02:28:35;;;;;;;7.28;3.83;;;;;;;7.99;59.46;95193.38;4964785;28;20042;-71
2023/01/06 02:31:35;;;;;;;5.05;3.40;;;;;;;8.04;59.50;95205.06;4958256;28;20105;-70
2023/01/06 02:34:23;;;;;;;6.38;3.90;;;;;;;7.96;59.44;95209.91;4964821;28;20101;-70
2023/01/06 02:36:57;;;;;;;7.50;4.30;;;;;;;7.94;59.66;95216.97;4971453;28;20055;-70
2023/01/06 02:39:32;;;;;;;6.80;3.30;;;;;;;7.88;59.61;95217.34;4955358;28;20050;-71
2023/01/06 02:42:06;;;;;;;5.93;2.90;;;;;;;7.85;58.86;95214.97;4975036;28;20396;-70
2023/01/06 02:44:36;;;;;;;7.47;3.38;;;;;;;7.93;58.60;95217.88;4974617;28;20035;-71
2023/01/06 02:47:11;;;;;;;6.10;3.55;;;;;;;7.92;58.62;95216.25;4971916;28;20041;-70
2023/01/06 02:50:05;;;;;;;8.13;3.20;;;;;;;7.92;58.13;95203.31;4969895;28;20118;-71
2023/01/06 02:52:52;;;;;;;5.32;3.00;;;;;;;7.97;58.27;95203.84;4966126;28;20047;-71
2023/01/06 02:55:28;;;;;;;6.47;4.10;;;;;;;7.83;59.34;95203.94;4956138;28;20541;-70
2023/01/06 02:58:30;;;;;;;7.57;3.20;;;;;;;7.70;58.17;95190.13;4969488;28;20054;-70
2023/01/06 03:01:23;;;;;;;3.83;2.40;;;;;;;7.67;58.10;95196.34;4944700;28;20043;-70
2023/01/06 03:03:48;;;;;;;5.90;2.53;;;;;;;7.72;57.53;95180.53;4969670;28;20508;-70
2023/01/06 03:06:16;;;;;;;3.83;2.30;;;;;;;7.79;58.07;95181.75;4944439;28;20043;-70
2023/01/06 03:08:43;;;;;;;5.07;3.00;;;;;;;7.81;57.88;95170.38;4982732;28;20121;-71
2023/01/06 03:11:08;;;;;;;4.53;2.53;;;;;;;7.71;57.55;95178.84;4955819;28;20039;-70
2023/01/06 03:13:36;;;;;;;3.22;2.50;;;;;;;7.76;57.52;95166.44;4956055;28;20038;-70
2023/01/06 03:16:02;;;;;;;3.92;2.72;;;;;;;7.70;57.46;95166.84;4955158;28;20038;-70
2023/01/06 03:18:29;;;;;;;3.83;2.40;;;;;;;7.70;57.58;95172.84;4954754;28;20031;-70
2023/01/06 03:20:56;;;;;;;3.97;2.40;;;;;;;7.59;57.13;95147.69;4957595;28;20039;-71
2023/01/06 03:23:22;;;;;;;4.10;2.50;;;;;;;7.66;56.88;95134.38;4953054;28;20500;-71
2023/01/06 03:25:47;;;;;;;4.22;2.72;;;;;;;7.78;56.92;95154.25;4931646;29;20066;-70
2023/01/06 03:28:12;;;;;;;5.00;3.17;;;;;;;7.82;56.53;95153.09;4970805;28;20037;-70
2023/01/06 03:30:52;;;;;;;4.18;2.60;;;;;;;7.79;56.16;95163.66;4956013;28;20038;-70
2023/01/06 03:33:21;;;;;;;9.00;4.22;;;;;;;7.71;56.29;95164.16;4952490;28;20520;-70
2023/01/06 03:36:03;;;;;;;4.43;2.45;;;;;;;7.63;56.30;95175.94;4960744;28;20035;-70
2023/01/06 03:39:10;;;;;;;4.68;1.88;;;;;;;7.61;56.31;95194.16;4959487;28;20094;-70
2023/01/06 03:44:46;;;;;;;3.47;1.55;;;;;;;7.67;56.51;95211.03;4953710;28;20101;-71
2023/01/06 03:47:26;;;;;;;5.22;2.25;;;;;;;7.67;56.85;95208.44;4933676;29;20054;-70
2023/01/06 03:50:00;;;;;;;3.67;2.08;;;;;;;7.58;56.71;95215.03;4969269;28;20031;-70
2023/01/06 03:52:28;;;;;;;3.78;1.80;;;;;;;7.61;57.01;95220.00;4925079;29;20059;-71
2023/01/06 03:54:58;;;;;;;19.25;6.43;;;;;;;7.56;56.81;95228.06;4939151;28;20413;-70
2023/01/06 03:57:25;;;;;;;3.50;2.15;;;;;;;7.63;56.39;95227.66;4953943;28;20474;-70
2023/01/06 04:00:12;;;;;;;7.28;3.33;;;;;;;7.57;56.86;95234.03;4954140;28;20065;-70
2023/01/06 04:02:37;;;;;;;4.90;1.95;;;;;;;7.52;57.10;95230.91;4958601;28;20038;-70
2023/01/06 04:05:10;;;;;;;3.58;2.20;;;;;;;7.43;57.38;95232.34;4943038;29;20029;-71
2023/01/06 04:07:37;;;;;;;4.57;2.10;;;;;;;7.45;57.40;95211.59;4955033;28;20047;-70
2023/01/06 04:10:03;;;;;;;8.70;4.57;;;;;;;7.63;56.75;95227.66;4971770;28;20041;-71
2023/01/06 04:12:37;;;;;;;8.80;4.97;;;;;;;7.68;56.58;95230.78;4972225;28;20035;-70
2023/01/06 04:15:07;;;;;;;5.40;3.60;;;;;;;7.62;56.28;95234.59;4971709;28;20070;-70
2023/01/06 04:17:32;;;;;;;5.15;2.88;;;;;;;7.59;56.75;95230.44;4967632;28;20058;-70
2023/01/06 04:19:58;;;;;;;4.97;2.88;;;;;;;7.56;57.00;95220.28;4956179;28;20113;-70
2023/01/06 04:22:23;;;;;;;6.57;3.17;;;;;;;7.47;57.06;95239.00;4962835;28;20386;-70
2023/01/06 04:24:49;;;;;;;8.30;5.82;;;;;;;7.48;56.43;95237.22;4968731;28;20030;-71
2023/01/06 04:27:14;;;;;;;5.22;3.63;;;;;;;7.35;56.37;95229.41;4957529;28;20043;-70
2023/01/06 04:29:40;;;;;;;4.53;2.40;;;;;;;7.26;56.38;95253.25;4954668;28;20442;-71
2023/01/06 04:32:05;;;;;;;5.03;3.40;;;;;;;7.39;55.88;95265.31;4968276;28;20458;-70
2023/01/06 04:34:30;;;;;;;4.75;3.20;;;;;;;7.40;56.06;95271.31;4965597;28;20500;-70
2023/01/06 04:36:56;;;;;;;3.83;2.50;;;;;;;7.43;55.66;95285.81;4955836;28;20423;-70
2023/01/06 04:39:21;;;;;;;4.63;2.80;;;;;;;7.41;55.50;95285.06;4960162;28;20023;-71
2023/01/06 04:41:47;;;;;;;4.10;2.10;;;;;;;7.25;55.65;95295.56;4976850;28;20039;-71
2023/01/06 04:44:12;;;;;;;3.17;1.95;;;;;;;7.33;55.57;95290.72;4972838;28;20128;-70
2023/01/06 04:46:38;;;;;;;4.85;1.92;;;;;;;7.38;55.48;95280.91;4956680;28;20035;-71
2023/01/06 04:49:03;;;;;;;3.78;2.00;;;;;;;7.31;55.66;95275.31;4936097;29;20035;-71
2023/01/06 04:51:29;;;;;;;2.92;1.70;;;;;;;7.12;55.97;95267.88;4952248;29;20035;-70
2023/01/06 04:53:54;;;;;;;4.13;2.08;;;;;;;7.16;56.08;95281.44;4952004;29;20072;-70
2023/01/06 04:56:20;;;;;;;4.70;2.90;;;;;;;7.20;56.00;95289.84;4977641;28;20070;-70
2023/01/06 04:58:45;;;;;;;2.97;1.90;;;;;;;7.20;56.54;95302.75;4960012;28;20055;-71
2023/01/06 05:01:11;;;;;;;8.27;2.05;;;;;;;7.16;56.25;95292.59;4971388;28;20476;-70
2023/01/06 05:03:37;;;;;;;4.63;1.92;;;;;;;7.23;55.93;95300.78;4974205;28;20030;-70
2023/01/06 05:06:04;;;;;;;2.90;1.98;;;;;;;7.22;55.97;95290.56;4990193;28;20113;-71
2023/01/06 05:08:30;;;;;;;3.75;2.08;;;;;;;7.36;55.65;95316.38;4971066;28;20055;-71
2023/01/06 05:11:03;;;;;;;3.05;1.92;;;;;;;7.25;55.97;95319.63;4987506;28;20489;-71
2023/01/06 05:13:32;;;;;;;3.22;1.88;;;;;;;7.07;56.67;95303.47;4987153;28;20035;-71
2023/01/06 05:15:57;;;;;;;2.80;1.80;;;;;;;7.26;56.57;95318.69;4961840;28;20058;-71
2023/01/06 05:18:23;;;;;;;4.18;1.98;;;;;;;7.27;56.23;95316.94;4964287;28;20485;-71
2023/01/06 05:20:52;;;;;;;3.17;2.00;;;;;;;7.18;56.53;95323.50;4975855;28;20485;-70
2023/01/06 05:23:18;;;;;;;3.60;2.13;;;;;;;7.29;56.82;95325.44;4965141;28;20530;-71
2023/01/06 05:25:43;;;;;;;4.10;2.30;;;;;;;7.15;56.93;95327.09;4964219;28;20039;-71
2023/01/06 05:28:09;;;;;;;3.35;2.05;;;;;;;7.20;57.12;95326.00;4958274;28;20027;-71
2023/01/06 05:30:34;;;;;;;4.35;3.10;;;;;;;7.29;56.91;95326.25;4959624;28;20097;-70
2023/01/06 05:32:59;;;;;;;7.70;3.47;;;;;;;7.14;57.53;95322.88;4982836;28;20034;-70
2023/01/06 05:35:25;;;;;;;4.18;2.70;;;;;;;7.19;57.41;95332.06;4961207;28;20035;-71
2023/01/06 05:37:53;;;;;;;5.95;4.00;;;;;;;7.13;57.11;95328.13;4943051;29;20105;-71
2023/01/06 05:40:18;;;;;;;5.88;3.50;;;;;;;7.19;56.99;95319.16;4970151;28;20030;-71
2023/01/06 05:42:44;;;;;;;5.35;3.30;;;;;;;7.08;57.09;95312.09;4962793;28;20035;-70
2023/01/06 05:45:10;;;;;;;6.50;4.00;;;;;;;7.21;56.84;95328.47;4970080;28;20026;-71
2023/01/06 05:47:35;;;;;;;6.45;2.88;;;;;;;6.94;56.89;95333.59;4969100;28;20124;-71
2023/01/06 05:50:02;;;;;;;5.25;2.50;;;;;;;7.07;56.52;95334.50;4958020;28;20035;-71
2023/01/06 05:52:27;;;;;;;3.30;1.90;;;;;;;7.02;56.40;95331.38;4974313;28;20476;-71
2023/01/06 05:54:52;;;;;;;3.60;2.20;;;;;;;6.92;55.28;95317.34;4954890;28;20103;-71
2023/01/06 05:57:18;;;;;;;3.92;2.10;;;;;;;7.04;55.42;95344.19;4961885;28;20082;-70
2023/01/06 05:59:43;;;;;;;3.83;2.10;;;;;;;6.87;55.00;95352.94;4975322;28;20109;-70
2023/01/06 06:02:09;;;;;;;2.90;1.75;;;;;;;6.97;54.92;95338.56;4974602;28;20038;-73
2023/01/06 06:04:34;;;;;;;2.88;1.70;;;;;;;6.99;54.75;95353.97;4969505;28;20031;-71
2023/01/06 06:07:00;;;;;;;5.90;2.10;;;;;;;7.06;54.16;95350.94;4970463;28;20039;-71
2023/01/06 06:09:25;;;;;;;3.42;1.80;;;;;;;6.98;53.78;95352.31;4967517;28;20421;-71
2023/01/06 06:11:53;;;;;;;2.97;1.50;;;;;;;7.06;53.34;95338.00;4955396;28;20042;-71
2023/01/06 06:14:18;;;;;;;2.70;1.90;;;;;;;7.11;53.31;95345.50;4969189;28;20555;-72
2023/01/06 06:16:43;;;;;;;2.88;2.00;;;;;;;6.99;53.00;95339.28;4967278;28;20035;-71
2023/01/06 06:19:11;;;;;;;2.83;1.67;;;;;;;6.98;53.29;95354.91;4938025;29;20020;-72
2023/01/06 06:21:36;;;;;;;3.72;1.55;;;;;;;6.90;53.69;95342.44;4962677;28;20493;-71
2023/01/06 06:24:02;;;;;;;2.90;1.85;;;;;;;6.90;53.14;95326.94;4964934;28;20038;-71
2023/01/06 06:26:27;;;;;;;3.25;1.70;;;;;;;7.18;52.65;95356.28;4972986;28;20126;-71
2023/01/06 06:28:52;;;;;;;4.32;1.40;;;;;;;7.12;51.64;95334.22;4967282;28;20446;-71
2023/01/06 06:31:25;;;;;;;2.67;1.55;;;;;;;7.24;51.11;95346.38;4953704;28;20031;-71
2023/01/06 06:33:58;;;;;;;2.97;1.77;;;;;;;7.25;51.32;95348.06;4952598;29;20042;-71
2023/01/06 06:36:23;;;;;;;2.75;1.60;;;;;;;7.20;51.53;95357.84;4952941;29;20035;-71
2023/01/06 06:38:50;;;;;;;4.18;1.42;;;;;;;7.31;51.46;95362.34;4978265;28;20460;-71
2023/01/06 06:41:15;;;;;;;5.40;1.45;;;;;;;7.24;51.51;95351.53;4970120;28;20038;-71
2023/01/06 06:43:41;;;;;;;3.05;1.40;;;;;;;7.23;51.41;95349.91;4974656;28;20037;-71
2023/01/06 06:46:06;;;;;;;2.42;1.27;;;;;;;7.38;51.33;95361.03;4992144;28;20408;-71
2023/01/06 06:48:32;;;;;;;2.17;1.40;;;;;;;7.32;51.76;95370.00;4960650;28;20038;-71
2023/01/06 06:50:58;;;;;;;2.70;1.40;;;;;;;7.35;52.09;95375.00;4976965;28;20037;-72
2023/01/06 06:53:23;;;;;;;3.17;1.35;;;;;;;7.47;52.17;95367.44;4991825;28;20097;-71
2023/01/06 06:55:49;;;;;;;3.05;1.52;;;;;;;7.49;52.14;95370.72;4960945;28;20116;-71
2023/01/06 06:58:14;;;;;;;4.45;1.55;;;;;;;7.40;52.18;95377.28;4976625;28;20054;-71
2023/01/06 07:00:39;;;;;;;2.88;1.30;;;;;;;7.38;52.06;95381.72;4992820;28;20034;-71
2023/01/06 07:03:05;;;;;;;1.92;1.15;;;;;;;7.32;51.98;95369.19;4992773;28;20472;-71
2023/01/06 07:05:30;;;;;;;2.42;1.42;;;;;;;7.45;52.21;95387.38;4976682;28;20033;-71
2023/01/06 07:07:56;;;;;;;2.50;1.38;;;;;;;7.59;52.07;95377.00;4976580;28;20030;-71
2023/01/06 07:10:21;;;;;;;2.10;1.15;;;;;;;7.51;52.10;95374.88;4992703;28;20416;-71
2023/01/06 07:12:47;;;;;;;4.00;1.20;;;;;;;7.51;51.77;95379.22;4976431;28;20080;-71
2023/01/06 07:15:12;;;;;;;4.50;1.50;;;;;;;7.53;51.71;95373.03;4992760;28;20033;-71
2023/01/06 07:17:38;;;;;;;2.35;1.45;;;;;;;7.59;51.51;95370.06;4967541;28;20037;-71
2023/01/06 07:20:04;;;;;;;5.68;1.50;;;;;;;7.75;51.48;95384.63;4956509;28;20049;-71
2023/01/06 07:22:30;;;;;;;2.63;1.48;;;;;;;7.66;51.55;95403.28;4974655;28;20039;-71
2023/01/06 07:24:55;;;;;;;3.40;1.50;;;;;;;7.70;51.26;95399.59;4974319;28;20038;-71
2023/01/06 07:27:21;;;;;;;2.60;1.45;;;;;;;7.75;50.89;95397.56;4973072;28;20034;-72
2023/01/06 07:29:46;;;;;;;2.47;1.42;;;;;;;7.82;51.10;95399.66;4974139;28;20038;-71
2023/01/06 07:32:12;;;;;;;4.47;1.60;;;;;;;7.97;50.81;95392.69;4973080;28;20524;-71
2023/01/06 07:34:37;;;;;;;2.70;1.55;;;;;;;7.98;50.77;95384.00;4972862;28;20031;-71
2023/01/06 07:37:02;;;;;;;3.05;1.85;;;;;;;7.95;50.97;95394.56;4956864;28;20042;-71
2023/01/06 07:39:28;;;;;;;3.10;1.42;;;;;;;7.80;51.15;95383.44;4974021;28;20038;-71
2023/01/06 07:41:53;;;;;;;2.30;1.30;;;;;;;7.99;50.77;95419.28;4972813;28;20046;-71
2023/01/06 07:44:19;;;;;;;2.05;1.20;;;;;;;7.92;51.00;95414.63;4986642;28;20085;-71
2023/01/06 07:46:44;;;;;;;2.50;1.30;;;;;;;8.09;51.11;95411.78;4992120;28;20037;-69
2023/01/06 07:49:10;;;;;;;4.45;2.05;;;;;;;7.96;51.26;95422.06;4993269;28;20045;-70
2023/01/06 07:51:35;;;;;;;4.53;2.00;;;;;;;7.97;51.43;95415.16;4992069;28;20042;-70
2023/01/06 07:54:00;;;;;;;3.35;1.70;;;;;;;8.14;51.46;95424.44;4992201;28;20022;-70
2023/01/06 07:56:26;;;;;;;3.17;1.60;;;;;;;8.23;51.03;95418.69;4975772;28;20122;-71
2023/01/06 07:58:53;;;;;;;3.80;1.48;;;;;;;8.10;51.09;95394.50;4991797;28;20510;-71
2023/01/06 08:01:19;;;;;;;3.92;1.65;;;;;;;8.17;50.70;95413.91;4959933;28;20505;-71
2023/01/06 08:03:44;;;;;;;3.47;1.52;;;;;;;8.37;50.45;95430.75;4975566;28;20025;-71
2023/01/06 08:06:10;;;;;;;2.92;1.58;;;;;;;8.33;50.57;95408.53;4991774;28;20030;-71
2023/01/06 08:08:36;;;;;;;3.35;1.42;;;;;;;8.59;50.76;95430.22;4959173;28;20034;-71
2023/01/06 08:11:02;;;;;;;2.20;1.30;;;;;;;8.62;50.32;95438.59;4959400;28;20416;-71
2023/01/06 08:13:28;;;;;;;3.92;1.30;;;;;;;8.67;50.28;95431.38;4992762;28;20026;-71
2023/01/06 08:15:53;;;;;;;2.50;1.50;;;;;;;8.73;50.13;95437.91;4992353;28;20041;-71
2023/01/06 08:18:19;;;;;;;2.88;1.48;;;;;;;8.83;49.46;95428.59;4980195;28;20258;-71
2023/01/06 08:20:44;;;;;;;5.63;1.60;;;;;;;8.75;49.71;95430.03;4973453;28;20031;-71
2023/01/06 08:23:10;;;;;;;4.13;1.40;;;;;;;8.89;49.24;95451.50;4991379;28;20117;-71
2023/01/06 08:25:35;;;;;;;4.40;1.95;;;;;;;8.78;49.13;95414.31;4991448;28;20064;-71
2023/01/06 08:28:01;;;;;;;3.28;1.50;;;;;;;9.13;48.56;95422.28;4991214;28;20047;-72
2023/01/06 08:30:26;;;;;;;2.25;1.50;;;;;;;9.21;48.86;95429.56;4991159;28;20041;-71
2023/01/06 08:32:55;;;;;;;3.28;1.80;;;;;;;9.17;48.51;95416.81;4975027;28;20085;-71
2023/01/06 08:35:21;;;;;;;3.75;1.90;;;;;;;9.22;48.22;95421.69;4987633;28;20030;-71
2023/01/06 08:37:46;;;;;;;2.33;1.17;;;;;;;9.32;47.88;95435.66;4984307;28;20041;-71
2023/01/06 08:40:12;;;;;;;2.92;1.50;;;;;;;9.26;47.57;95402.38;4991217;28;20034;-71
2023/01/06 08:42:37;;;;;;;4.18;1.58;;;;;;;9.49;47.33;95423.31;4990870;28;20483;-71
2023/01/06 08:45:03;;;;;;;1.95;1.15;;;;;;;9.49;46.82;95425.91;4970533;28;20050;-70
2023/01/06 08:47:28;;;;;;;2.72;1.20;;;;;;;9.53;46.70;95435.16;4971070;28;20519;-71
2023/01/06 08:49:54;;;;;;;3.05;1.40;;;;;;;9.40;46.83;95415.22;4971073;28;20513;-71
2023/01/06 08:52:19;;;;;;;4.28;1.25;;;;;;;9.51;47.02;95424.06;4937353;28;20363;-71
2023/01/06 08:54:44;;;;;;;8.45;4.20;;;;;;;9.66;47.09;95438.53;4970624;28;20038;-71
2023/01/06 08:57:10;;;;;;;2.88;1.60;;;;;;;9.63;46.51;95405.03;4969376;28;20027;-71
2023/01/06 08:59:35;;;;;;;2.55;1.23;;;;;;;9.82;46.06;95417.56;4969237;28;20055;-71
2023/01/06 09:02:01;;;;;;;4.18;1.10;;;;;;;9.74;46.20;95419.84;4952896;28;20266;-72
2023/01/06 09:04:26;;;;;;;2.63;1.05;;;;;;;9.90;45.92;95430.81;4970072;28;20034;-71
2023/01/06 09:06:52;;;;;;;5.80;3.70;;;;;;;10.05;45.59;95434.09;4971269;28;20492;-71
2023/01/06 09:09:17;;;;;;;2.55;1.10;;;;;;;10.00;45.37;95425.78;4971234;28;20041;-72
2023/01/06 09:11:43;;;;;;;1.60;1.05;;;;;;;10.14;45.37;95417.03;4971033;28;20027;-71
2023/01/06 09:14:10;;;;;;;2.30;0.95;;;;;;;10.06;44.95;95420.19;4963401;28;20031;-72
2023/01/06 09:16:35;;;;;;;2.97;1.67;;;;;;;10.21;45.23;95432.06;4965256;28;20257;-72
2023/01/06 09:19:00;;;;;;;4.72;1.77;;;;;;;10.22;44.51;95417.31;4990163;28;20031;-71
2023/01/06 09:21:26;;;;;;;6.97;2.90;;;;;;;10.25;44.82;95425.72;4974238;28;20030;-71
2023/01/06 09:23:51;;;;;;;2.97;1.60;;;;;;;10.16;44.94;95412.56;4971224;28;20055;-72
2023/01/06 09:26:17;;;;;;;3.35;1.65;;;;;;;10.20;44.83;95421.81;4972743;28;20037;-71
2023/01/06 09:28:42;;;;;;;2.10;1.30;;;;;;;10.32;44.68;95401.94;4955127;28;20126;-69
2023/01/06 09:31:08;;;;;;;3.28;1.67;;;;;;;10.26;44.93;95417.00;4962093;28;20035;-69
2023/01/06 09:33:34;;;;;;;2.53;1.40;;;;;;;10.34;44.80;95402.66;4953109;28;20067;-69
2023/01/06 09:35:59;;;;;;;3.30;2.03;;;;;;;10.49;44.45;95406.72;4938128;28;20038;-69
2023/01/06 09:38:26;;;;;;;2.45;1.50;;;;;;;10.50;44.04;95392.78;4986471;28;20038;-69
2023/01/06 09:41:24;;;;;;;4.13;1.70;;;;;;;10.52;44.23;95394.34;4991471;28;20031;-69
2023/01/06 09:44:17;;;;;;;2.80;1.80;;;;;;;10.43;44.63;95397.63;4968429;28;20137;-69
2023/01/06 09:46:44;;;;;;;4.85;1.67;;;;;;;10.36;45.22;95382.59;4963351;28;20525;-69
2023/01/06 09:49:13;;;;;;;3.90;2.00;;;;;;;10.73;44.92;95394.53;4964543;28;20039;-69
2023/01/06 09:51:38;;;;;;;2.72;1.50;;;;;;;10.60;44.20;95385.16;4970673;28;20038;-69
2023/01/06 09:54:12;;;;;;;3.97;1.63;;;;;;;10.59;44.28;95405.13;4938690;28;20043;-69
2023/01/06 09:56:37;;;;;;;2.78;1.42;;;;;;;10.64;43.93;95400.44;4955561;28;20101;-69
2023/01/06 09:59:33;;;;;;;2.50;1.40;;;;;;;10.78;43.21;95381.22;4970408;28;20510;-69
2023/01/06 10:01:58;;;;;;;2.33;1.30;;;;;;;10.69;44.06;95392.28;4949591;28;20041;-69
2023/01/06 10:04:28;;;;;;;3.38;1.27;;;;;;;10.61;43.95;95400.63;4954764;28;20030;-69
2023/01/06 10:07:01;;;;;;;1.90;0.95;;;;;;;10.74;43.32;95380.59;4970490;28;20029;-69
2023/01/06 10:10:01;;;;;;;2.97;1.70;;;;;;;10.67;43.26;95369.00;4955328;28;20038;-69
2023/01/06 10:12:35;;;;;;;4.60;1.50;;;;;;;10.82;43.87;95385.22;4937708;28;20457;-69
2023/01/06 10:15:14;;;;;;;6.18;1.08;;;;;;;10.65;43.68;95376.09;4952524;28;20033;-69
2023/01/06 10:17:49;;;;;;;2.30;1.10;;;;;;;10.78;43.72;95372.56;4952532;28;20027;-69
2023/01/06 10:20:37;;;;;;;2.30;1.20;;;;;;;10.92;43.09;95380.16;4959441;28;20062;-69
2023/01/06 10:23:18;;;;;;;2.75;1.60;;;;;;;10.76;43.31;95374.47;4987389;28;20050;-69
2023/01/06 10:25:54;;;;;;;2.17;1.00;;;;;;;10.69;42.95;95346.31;4958823;28;20039;-70
2023/01/06 10:28:29;;;;;;;2.40;1.15;;;;;;;10.61;43.17;95348.66;4970530;28;20043;-70
2023/01/06 10:30:57;;;;;;;2.15;1.20;;;;;;;10.74;42.90;95346.81;4975018;28;20035;-70
2023/01/06 10:33:27;;;;;;;3.60;1.10;;;;;;;10.80;42.52;95327.31;4970388;28;20121;-70
2023/01/06 10:35:56;;;;;;;5.10;1.40;;;;;;;11.00;42.17;95318.00;4970681;28;20018;-70
2023/01/06 10:38:28;;;;;;;2.45;1.25;;;;;;;10.88;42.45;95322.38;4972069;28;20034;-70
2023/01/06 10:40:53;;;;;;;1.75;1.20;;;;;;;10.86;42.43;95328.63;4973923;28;20066;-70
2023/01/06 10:43:21;;;;;;;2.22;1.10;;;;;;;10.76;42.47;95314.69;4989930;28;20043;-71
2023/01/06 10:45:47;;;;;;;3.55;1.02;;;;;;;10.86;42.60;95300.88;4970618;28;20118;-70
2023/01/06 10:48:17;;;;;;;2.38;1.25;;;;;;;10.98;42.16;95313.88;4954395;29;20130;-70
2023/01/06 10:50:43;;;;;;;4.10;1.50;;;;;;;10.87;42.52;95325.94;4938980;29;20493;-70
2023/01/06 10:53:12;;;;;;;3.90;1.30;;;;;;;11.06;42.27;95319.31;4938480;29;20054;-69
2023/01/06 10:55:37;;;;;;;2.05;1.08;;;;;;;11.08;42.40;95320.03;4938301;29;20391;-71
2023/01/06 10:58:24;;;;;;;12.98;5.78;;;;;;;11.16;42.39;95335.88;4970954;28;20057;-71
2023/01/06 11:01:00;;;;;;;22.05;12.60;;;;;;;11.19;41.75;95331.25;4975433;28;20145;-71
2023/01/06 11:03:26;;;;;;;4.88;2.88;;;;;;;11.01;42.26;95317.09;4968666;28;20030;-71
2023/01/06 11:06:13;;;;;;;1.98;1.13;;;;;;;10.95;42.29;95300.19;4955501;28;20404;-71
2023/01/06 11:08:38;;;;;;;3.88;2.95;;;;;;;11.00;42.19;95297.22;4971439;28;20030;-71
2023/01/06 11:11:11;;;;;;;3.20;1.80;;;;;;;11.09;42.04;95293.09;4973711;28;20081;-71
2023/01/06 11:13:38;;;;;;;2.55;1.40;;;;;;;11.08;42.33;95307.03;4973752;28;20034;-71
2023/01/06 11:16:16;;;;;;;4.43;1.50;;;;;;;11.24;42.11;95304.09;4973300;28;20031;-71
2023/01/06 11:18:41;;;;;;;27.05;10.40;;;;;;;11.34;42.21;95294.63;4957082;28;20500;-71
2023/01/06 11:21:12;;;;;;;4.22;1.80;;;;;;;11.26;42.14;95312.59;4957148;28;20054;-71
2023/01/06 11:23:38;;;;;;;2.28;1.40;;;;;;;11.40;41.93;95302.75;4957177;28;20039;-71
2023/01/06 11:26:14;;;;;;;3.13;1.67;;;;;;;11.29;41.66;95309.75;4972211;28;20033;-71
2023/01/06 11:28:41;;;;;;;3.50;1.90;;;;;;;11.41;41.57;95294.00;4972883;28;20066;-71
2023/01/06 11:31:13;;;;;;;2.75;1.42;;;;;;;11.45;41.67;95307.63;4973052;28;20109;-71
2023/01/06 11:33:50;;;;;;;2.53;1.48;;;;;;;11.44;41.29;95311.16;4957401;28;20039;-71
2023/01/06 11:36:15;;;;;;;2.78;1.70;;;;;;;11.21;41.44;95297.34;4972860;28;20062;-71
2023/01/06 11:39:02;;;;;;;2.85;1.80;;;;;;;11.47;41.26;95312.69;4956841;28;20535;-71
2023/01/06 11:41:31;;;;;;;3.72;1.90;;;;;;;11.38;41.46;95302.06;4972678;28;20046;-71
2023/01/06 11:44:08;;;;;;;3.10;1.65;;;;;;;11.33;41.75;95301.56;4956976;28;20039;-71
2023/01/06 11:46:34;;;;;;;2.78;1.52;;;;;;;11.27;41.67;95316.84;4957629;28;20057;-71
2023/01/06 11:49:01;;;;;;;2.40;1.20;;;;;;;11.45;41.22;95314.56;4955885;28;20508;-70
2023/01/06 11:51:43;;;;;;;4.53;2.40;;;;;;;11.49;41.44;95314.22;4940434;28;20027;-71